Terminal Aerodrome Forecast
Issued by NWS Memphis, TN

Home | Current Version | Previous Version | Text Only | Print | Product List | Glossary On
Versions: 1 2 3 4 5 6 7 8 9 10 11 12 13 14 15 16 17 18 19 20 21 22 23 24 25 26 27 28
000
FTUS44 KMEG 161733
TAFMEM
TAF
KMEM 161733Z 1618/1718 16009KT P6SM VCSH BKN010 OVC050
      TEMPO 1618/1622 5SM -RA OVC003
     FM170100 18012G20KT 2SM SHRA BR VCTS OVC008CB
     FM171200 27008KT 5SM -SHRA BR OVC005=

USA.gov is the U.S. government's official web portal to all federal, state and local government web resources and services.